VHUKK YSSY-YSSY
Flight info
| Callsign | VHUKK |
|---|---|
| Flight time | 0h 0m |
| Altitude | 1500 |
| Route | LOCAL VFR SCENIC |
| Aircraft | DR40/L-V/N |
Departure
| Time | 2026-05-07 10:19 |
|---|---|
| Airport | Sydney Kingsford Smith International Airport (YSSY) |
Arrival
| Time | 2026-05-07 10:19 |
|---|---|
| Airport | Sydney Kingsford Smith International Airport (YSSY) |
| Time | Latitude | Longitude | Altitude | Speed | Heading |
|---|---|---|---|---|---|
| 2026-05-07 09:46 | -33.93412 | 151.18850 | 23 ft | 0 kts | 190° |
| 2026-05-07 09:56 | -33.93413 | 151.18849 | 23 ft | 1 kts | 189° |
| 2026-05-07 09:57 | -33.93435 | 151.18854 | 23 ft | 5 kts | 160° |
| 2026-05-07 09:57 | -33.93491 | 151.18858 | 22 ft | 10 kts | 197° |
| 2026-05-07 09:57 | -33.93568 | 151.18844 | 22 ft | 12 kts | 176° |
| 2026-05-07 09:57 | -33.93616 | 151.18918 | 22 ft | 13 kts | 131° |
| 2026-05-07 09:58 | -33.93662 | 151.18951 | 21 ft | 0 kts | 165° |
| 2026-05-07 10:18 | -33.93699 | 151.18962 | 20 ft | 11 kts | 174° |
| 2026-05-07 10:18 | -33.93787 | 151.18856 | 22 ft | 40 kts | 255° |
| 2026-05-07 10:18 | -33.93922 | 151.18393 | 260 ft | 54 kts | 252° |
| 2026-05-07 10:18 | -33.94091 | 151.17907 | 536 ft | 58 kts | 251° |
| 2026-05-07 10:19 | -33.94257 | 151.17364 | 773 ft | 62 kts | 261° |
| 2026-05-07 10:19 | -33.94231 | 151.16888 | 801 ft | 46 kts | 270° |
| 2026-05-07 10:19 | -33.94183 | 151.16465 | 745 ft | 41 kts | 282° |
| 2026-05-07 10:19 | -33.94044 | 151.16151 | 655 ft | 38 kts | 258° |
| 2026-05-07 10:20 | -33.93832 | 151.15925 | 830 ft | 63 kts | 351° |
| 2026-05-07 10:20 | -33.93323 | 151.16347 | 1070 ft | 81 kts | 41° |
| 2026-05-07 10:20 | -33.93037 | 151.16965 | 1215 ft | 101 kts | 70° |
| 2026-05-07 10:20 | -33.92774 | 151.17883 | 1429 ft | 110 kts | 64° |
| 2026-05-07 10:21 | -33.92536 | 151.18942 | 1487 ft | 127 kts | 72° |
| 2026-05-07 10:21 | -33.92260 | 151.20040 | 1609 ft | 128 kts | 69° |
| 2026-05-07 10:21 | -33.92004 | 151.21123 | 1616 ft | 112 kts | 86° |
| 2026-05-07 10:21 | -33.92238 | 151.21780 | 1520 ft | 69 kts | 166° |
| 2026-05-07 10:22 | -33.92695 | 151.21987 | 1285 ft | 65 kts | 184° |
| 2026-05-07 10:22 | -33.93147 | 151.21866 | 999 ft | 50 kts | 234° |
| 2026-05-07 10:22 | -33.93320 | 151.21373 | 837 ft | 79 kts | 259° |
| 2026-05-07 10:22 | -33.93399 | 151.20778 | 659 ft | 56 kts | 263° |
| 2026-05-07 10:23 | -33.93475 | 151.20323 | 481 ft | 62 kts | 261° |
| 2026-05-07 10:23 | -33.93605 | 151.19691 | 338 ft | 79 kts | 257° |
| 2026-05-07 10:23 | -33.93747 | 151.19060 | 138 ft | 54 kts | 258° |
| 2026-05-07 10:23 | -33.93842 | 151.18625 | 23 ft | 40 kts | 258° |
| 2026-05-07 10:24 | -33.93901 | 151.18290 | 17 ft | 4 kts | 323° |
| 2026-05-07 10:24 | -33.93871 | 151.18275 | 17 ft | 8 kts | 341° |
| 2026-05-07 10:24 | -33.93825 | 151.18259 | 16 ft | 0 kts | 343° |
| 2026-05-07 10:25 | -33.93773 | 151.18242 | 17 ft | 11 kts | 0° |
| 2026-05-07 10:25 | -33.93715 | 151.18308 | 19 ft | 13 kts | 76° |
| 2026-05-07 10:25 | -33.93687 | 151.18427 | 21 ft | 15 kts | 74° |
| 2026-05-07 10:25 | -33.93655 | 151.18560 | 23 ft | 17 kts | 72° |
| 2026-05-07 10:26 | -33.93623 | 151.18709 | 23 ft | 18 kts | 78° |
| 2026-05-07 10:26 | -33.93567 | 151.18844 | 22 ft | 18 kts | 7° |
| 2026-05-07 10:26 | -33.93513 | 151.18789 | 23 ft | 9 kts | 251° |
| 2026-05-07 10:26 | -33.93515 | 151.18782 | 23 ft | 0 kts | 252° |